Nashville, TN (37221)

7:19 PM CST on March 06, 2015 (GMT -0600)
Bellevue | Change Station
CLOSE
Current Station
Personal Weather Station
Location: Nashville, TN
Elevation: 617 ft
Nearby Weather Stations
Active Advisory: Flood Advisory Active Notice: Record Report

Elev 617 ft 36.08 °N, 86.94 °W | Updated 11 seconds ago

Clear
Clear
30.3 °F
Feels Like 30 °F
N
0.0
Wind Variable Wind from West
Gusts 0.0 mph

Today
High -- | Low -- °F
--% Chance of Precip.
Yesterday
High -- | Low -- °F
Precip. -- in
6:11 AM 5:47 PM
Full, 99% visible
Pressure 30.49 in
Visibility 10.0 miles
Clouds Clear
Windchill 30 °F
Dew Point 22 °F
Humidity 70%
Rainfall in
Snow Depth Not available.
UV 0 out of 12
Pollen 2.70 out of 12
Air Quality Not available.
Flu Activity Not available.
METAR KBNA 070053Z 00000KT 10SM CLR M01/M08 A3047 RMK AO2 SLP324 T10061083

More Conditions Fewer Conditions

Pressure 30.49 in
Visibility 10.0 miles
Clouds Clear
Windchill 30 °F
Dew Point 22 °F
Humidity 70%
Rainfall in
Snow Depth Not available.
UV 0 out of 12
Pollen 2.70 out of 12
Air Quality Not available.
Flu Activity Not available.
METAR KBNA 070053Z 00000KT 10SM CLR M01/M08 A3047 RMK AO2 SLP324 T10061083

More Conditions Fewer Conditions

10-Day Weather Forecast

Almanac

Astronomy

Mar. 06, 2015 Rise Set
Actual Time
Civil Twilight
Nautical Twilight
Astronomical Twilight
Moon
Length of Visible Light
Length of Day
Tomorrow will be .
, % of the Moon is Illuminated

Today's Extremes

State Highs State Lows

Community

WunderPhotos

Upload Photos

1,803,480 photos uploaded!

WunderBlogs® & News

Nearby

Air Quality

  Air Quality AQ Index Pollutant
Not available.

Snow Depth

Station Depth Elevation

Earthquake Activity

City Distance Mag. Time & Date
Minimum magnitude displayed is 2.5.

Coastal Water Temperatures

Place Temperature

Nearby Weather Stations

Flood Advisory
Statement as of 5:13 PM CST on March 06, 2015

The Flood Advisory continues for
the stones river near Donelson
* until Saturday morning.
* At 5pm Friday the stage was 21.5 feet... and slowly falling.
* The river will remain high through tonight.
* At 20.0 feet... portions of the stones river Greenway between Percy priest dam
and Lebanon Road are inundated.
* Flood stage is 35.0 feet.